sensor_id;sensor_type;location;lat;lon;timestamp;P1;durP1;ratioP1;P2;durP2;ratioP2
2564;SDS011;1292;48.020;7.822;2022-12-11T06:46:54;22.50;;;14.63;;
2564;SDS011;1292;48.020;7.822;2022-12-11T06:49:21;19.47;;;12.57;;
2564;SDS011;1292;48.020;7.822;2022-12-11T06:51:48;25.37;;;14.87;;
2564;SDS011;1292;48.020;7.822;2022-12-11T06:54:15;22.30;;;13.33;;
2564;SDS011;1292;48.020;7.822;2022-12-11T06:56:41;27.10;;;13.00;;
2564;SDS011;1292;48.020;7.822;2022-12-11T06:59:09;19.67;;;11.70;;
2564;SDS011;1292;48.020;7.822;2022-12-11T07:01:37;15.97;;;11.47;;
2564;SDS011;1292;48.020;7.822;2022-12-11T07:04:07;20.37;;;12.43;;
2564;SDS011;1292;48.020;7.822;2022-12-11T07:06:34;20.20;;;12.87;;
2564;SDS011;1292;48.020;7.822;2022-12-11T07:09:02;25.20;;;12.47;;
2564;SDS011;1292;48.020;7.822;2022-12-11T07:11:29;26.47;;;12.53;;
2564;SDS011;1292;48.020;7.822;2022-12-11T07:13:57;22.07;;;12.03;;
2564;SDS011;1292;48.020;7.822;2022-12-11T07:16:24;18.63;;;10.80;;
2564;SDS011;1292;48.020;7.822;2022-12-11T07:18:51;29.73;;;15.43;;
2564;SDS011;1292;48.020;7.822;2022-12-11T07:21:19;25.73;;;11.93;;
2564;SDS011;1292;48.020;7.822;2022-12-11T07:23:47;21.03;;;11.23;;
2564;SDS011;1292;48.020;7.822;2022-12-11T07:26:14;23.07;;;14.43;;
2564;SDS011;1292;48.020;7.822;2022-12-11T07:28:43;24.90;;;12.80;;
2564;SDS011;1292;48.020;7.822;2022-12-11T07:31:10;25.97;;;12.20;;
2564;SDS011;1292;48.020;7.822;2022-12-11T07:33:39;23.37;;;13.37;;
2564;SDS011;1292;48.020;7.822;2022-12-11T07:36:07;30.30;;;12.43;;
2564;SDS011;1292;48.020;7.822;2022-12-11T07:38:37;20.03;;;11.50;;
2564;SDS011;1292;48.020;7.822;2022-12-11T07:41:05;18.73;;;11.70;;
2564;SDS011;1292;48.020;7.822;2022-12-11T07:43:33;19.37;;;12.00;;
2564;SDS011;1292;48.020;7.822;2022-12-11T07:46:00;19.27;;;11.93;;
2564;SDS011;1292;48.020;7.822;2022-12-11T07:48:28;17.20;;;11.93;;
2564;SDS011;1292;48.020;7.822;2022-12-11T07:50:55;24.90;;;15.60;;
2564;SDS011;1292;48.020;7.822;2022-12-11T07:53:22;20.97;;;13.43;;
2564;SDS011;1292;48.020;7.822;2022-12-11T07:55:50;25.30;;;14.90;;
2564;SDS011;1292;48.020;7.822;2022-12-11T07:58:17;27.33;;;16.90;;
2564;SDS011;1292;48.020;7.822;2022-12-11T08:00:44;23.27;;;12.90;;
2564;SDS011;1292;48.020;7.822;2022-12-11T08:03:11;20.27;;;12.87;;
2564;SDS011;1292;48.020;7.822;2022-12-11T08:05:38;19.17;;;12.33;;
2564;SDS011;1292;48.020;7.822;2022-12-11T08:08:05;20.87;;;11.20;;
2564;SDS011;1292;48.020;7.822;2022-12-11T08:10:32;19.90;;;11.70;;
2564;SDS011;1292;48.020;7.822;2022-12-11T08:13:00;19.80;;;9.80;;
2564;SDS011;1292;48.020;7.822;2022-12-11T08:15:27;18.13;;;11.47;;
2564;SDS011;1292;48.020;7.822;2022-12-11T08:17:54;17.40;;;11.00;;
2564;SDS011;1292;48.020;7.822;2022-12-11T08:20:21;20.33;;;11.17;;
2564;SDS011;1292;48.020;7.822;2022-12-11T08:22:48;25.20;;;12.47;;
2564;SDS011;1292;48.020;7.822;2022-12-11T08:25:15;22.70;;;12.03;;
2564;SDS011;1292;48.020;7.822;2022-12-11T08:27:42;23.83;;;12.90;;
2564;SDS011;1292;48.020;7.822;2022-12-11T08:30:10;25.37;;;14.40;;
2564;SDS011;1292;48.020;7.822;2022-12-11T08:32:38;22.87;;;12.50;;
2564;SDS011;1292;48.020;7.822;2022-12-11T08:35:05;25.30;;;12.80;;
2564;SDS011;1292;48.020;7.822;2022-12-11T08:37:32;23.90;;;12.17;;
2564;SDS011;1292;48.020;7.822;2022-12-11T08:40:00;18.30;;;11.20;;
2564;SDS011;1292;48.020;7.822;2022-12-11T08:42:27;23.80;;;12.70;;
2564;SDS011;1292;48.020;7.822;2022-12-11T08:44:53;23.10;;;11.13;;
2564;SDS011;1292;48.020;7.822;2022-12-11T08:47:22;23.00;;;11.83;;
2564;SDS011;1292;48.020;7.822;2022-12-11T08:49:49;43.50;;;25.27;;
2564;SDS011;1292;48.020;7.822;2022-12-11T08:52:16;64.97;;;36.80;;
2564;SDS011;1292;48.020;7.822;2022-12-11T08:54:43;23.70;;;14.77;;
2564;SDS011;1292;48.020;7.822;2022-12-11T08:57:10;21.47;;;11.50;;
2564;SDS011;1292;48.020;7.822;2022-12-11T08:59:37;17.33;;;11.10;;
2564;SDS011;1292;48.020;7.822;2022-12-11T09:02:04;18.57;;;11.47;;
2564;SDS011;1292;48.020;7.822;2022-12-11T09:04:33;18.13;;;10.70;;
2564;SDS011;1292;48.020;7.822;2022-12-11T09:07:00;20.80;;;12.30;;
2564;SDS011;1292;48.020;7.822;2022-12-11T09:09:26;21.73;;;13.40;;
2564;SDS011;1292;48.020;7.822;2022-12-11T09:11:53;20.07;;;11.37;;
2564;SDS011;1292;48.020;7.822;2022-12-11T09:14:20;24.07;;;11.37;;
2564;SDS011;1292;48.020;7.822;2022-12-11T09:16:47;18.00;;;10.30;;
2564;SDS011;1292;48.020;7.822;2022-12-11T09:19:14;23.60;;;12.30;;
2564;SDS011;1292;48.020;7.822;2022-12-11T09:21:43;18.70;;;11.00;;
2564;SDS011;1292;48.020;7.822;2022-12-11T09:24:10;14.10;;;10.83;;
2564;SDS011;1292;48.020;7.822;2022-12-11T09:26:38;15.33;;;9.13;;
2564;SDS011;1292;48.020;7.822;2022-12-11T09:29:05;16.33;;;8.93;;
2564;SDS011;1292;48.020;7.822;2022-12-11T09:31:34;16.47;;;9.23;;
2564;SDS011;1292;48.020;7.822;2022-12-11T09:34:02;15.13;;;8.90;;
2564;SDS011;1292;48.020;7.822;2022-12-11T09:36:30;14.97;;;9.30;;
2564;SDS011;1292;48.020;7.822;2022-12-11T09:39:00;20.33;;;11.40;;
2564;SDS011;1292;48.020;7.822;2022-12-11T09:41:35;17.10;;;11.00;;
2564;SDS011;1292;48.020;7.822;2022-12-11T09:44:15;16.80;;;9.90;;
2564;SDS011;1292;48.020;7.822;2022-12-11T09:46:47;16.17;;;9.37;;
2564;SDS011;1292;48.020;7.822;2022-12-11T09:49:22;12.23;;;8.83;;
2564;SDS011;1292;48.020;7.822;2022-12-11T09:52:06;16.90;;;11.47;;
2564;SDS011;1292;48.020;7.822;2022-12-11T09:54:40;16.73;;;9.03;;
2564;SDS011;1292;48.020;7.822;2022-12-11T09:57:16;14.83;;;9.47;;
2564;SDS011;1292;48.020;7.822;2022-12-11T10:00:00;19.30;;;10.07;;
2564;SDS011;1292;48.020;7.822;2022-12-11T10:02:44;17.13;;;9.20;;
2564;SDS011;1292;48.020;7.822;2022-12-11T10:05:45;13.37;;;9.10;;
2564;SDS011;1292;48.020;7.822;2022-12-11T10:08:21;15.23;;;9.20;;
2564;SDS011;1292;48.020;7.822;2022-12-11T10:10:56;13.97;;;8.90;;
2564;SDS011;1292;48.020;7.822;2022-12-11T10:13:39;14.23;;;9.30;;
2564;SDS011;1292;48.020;7.822;2022-12-11T10:16:18;15.27;;;9.57;;
2564;SDS011;1292;48.020;7.822;2022-12-11T10:18:54;19.47;;;11.63;;
2564;SDS011;1292;48.020;7.822;2022-12-11T10:21:21;16.07;;;10.53;;
2564;SDS011;1292;48.020;7.822;2022-12-11T10:23:49;16.07;;;9.87;;
2564;SDS011;1292;48.020;7.822;2022-12-11T10:26:22;19.83;;;10.70;;
2564;SDS011;1292;48.020;7.822;2022-12-11T10:28:49;16.77;;;10.83;;
2564;SDS011;1292;48.020;7.822;2022-12-11T10:31:16;21.80;;;12.10;;
2564;SDS011;1292;48.020;7.822;2022-12-11T10:33:48;18.53;;;12.07;;
2564;SDS011;1292;48.020;7.822;2022-12-11T10:36:24;19.50;;;11.60;;
2564;SDS011;1292;48.020;7.822;2022-12-11T10:38:53;19.83;;;11.33;;
2564;SDS011;1292;48.020;7.822;2022-12-11T10:41:21;22.50;;;13.60;;
2564;SDS011;1292;48.020;7.822;2022-12-11T10:43:56;18.20;;;10.40;;
2564;SDS011;1292;48.020;7.822;2022-12-11T10:46:26;17.30;;;11.40;;
2564;SDS011;1292;48.020;7.822;2022-12-11T10:48:57;19.83;;;11.23;;
2564;SDS011;1292;48.020;7.822;2022-12-11T10:51:32;16.47;;;9.87;;
2564;SDS011;1292;48.020;7.822;2022-12-11T10:54:05;18.63;;;11.40;;
2564;SDS011;1292;48.020;7.822;2022-12-11T10:56:43;22.27;;;12.17;;
2564;SDS011;1292;48.020;7.822;2022-12-11T10:59:12;21.07;;;10.60;;
2564;SDS011;1292;48.020;7.822;2022-12-11T11:01:47;19.03;;;10.73;;
2564;SDS011;1292;48.020;7.822;2022-12-11T11:04:14;21.17;;;11.87;;
2564;SDS011;1292;48.020;7.822;2022-12-11T11:06:47;21.57;;;9.60;;
2564;SDS011;1292;48.020;7.822;2022-12-11T11:09:32;16.37;;;9.67;;
2564;SDS011;1292;48.020;7.822;2022-12-11T11:12:02;17.07;;;11.07;;
2564;SDS011;1292;48.020;7.822;2022-12-11T11:14:29;18.33;;;10.00;;
2564;SDS011;1292;48.020;7.822;2022-12-11T11:16:56;20.30;;;11.57;;
2564;SDS011;1292;48.020;7.822;2022-12-11T11:19:28;21.60;;;11.70;;
2564;SDS011;1292;48.020;7.822;2022-12-11T11:21:56;19.47;;;10.53;;
2564;SDS011;1292;48.020;7.822;2022-12-11T11:24:26;20.87;;;11.20;;
2564;SDS011;1292;48.020;7.822;2022-12-11T11:26:56;20.27;;;11.70;;
2564;SDS011;1292;48.020;7.822;2022-12-11T11:29:26;21.80;;;11.07;;
2564;SDS011;1292;48.020;7.822;2022-12-11T11:31:57;15.13;;;9.97;;
2564;SDS011;1292;48.020;7.822;2022-12-11T11:34:38;18.97;;;11.30;;
2564;SDS011;1292;48.020;7.822;2022-12-11T11:37:14;19.97;;;11.10;;
2564;SDS011;1292;48.020;7.822;2022-12-11T11:39:49;25.70;;;13.17;;
2564;SDS011;1292;48.020;7.822;2022-12-11T11:42:21;16.20;;;9.50;;
2564;SDS011;1292;48.020;7.822;2022-12-11T11:44:59;22.97;;;11.10;;
2564;SDS011;1292;48.020;7.822;2022-12-11T11:47:33;20.20;;;11.87;;
2564;SDS011;1292;48.020;7.822;2022-12-11T11:50:10;31.40;;;14.70;;
2564;SDS011;1292;48.020;7.822;2022-12-11T11:52:42;15.30;;;11.00;;
2564;SDS011;1292;48.020;7.822;2022-12-11T11:55:17;16.43;;;11.13;;
2564;SDS011;1292;48.020;7.822;2022-12-11T11:57:47;17.27;;;10.73;;
2564;SDS011;1292;48.020;7.822;2022-12-11T12:00:24;21.17;;;11.70;;
2564;SDS011;1292;48.020;7.822;2022-12-11T12:02:53;19.07;;;11.50;;
2564;SDS011;1292;48.020;7.822;2022-12-11T12:05:24;19.87;;;12.10;;
2564;SDS011;1292;48.020;7.822;2022-12-11T12:08:00;22.10;;;11.57;;
2564;SDS011;1292;48.020;7.822;2022-12-11T12:10:38;19.73;;;10.23;;
2564;SDS011;1292;48.020;7.822;2022-12-11T12:13:15;18.50;;;12.10;;
2564;SDS011;1292;48.020;7.822;2022-12-11T12:15:54;18.27;;;10.80;;
2564;SDS011;1292;48.020;7.822;2022-12-11T12:18:23;17.20;;;10.97;;
2564;SDS011;1292;48.020;7.822;2022-12-11T12:20:58;22.47;;;12.63;;
2564;SDS011;1292;48.020;7.822;2022-12-11T12:23:37;22.03;;;12.60;;
2564;SDS011;1292;48.020;7.822;2022-12-11T12:26:16;15.30;;;10.23;;
2564;SDS011;1292;48.020;7.822;2022-12-11T12:28:51;20.70;;;12.23;;
2564;SDS011;1292;48.020;7.822;2022-12-11T12:31:35;16.90;;;11.60;;
2564;SDS011;1292;48.020;7.822;2022-12-11T12:34:15;23.00;;;11.87;;
2564;SDS011;1292;48.020;7.822;2022-12-11T12:36:54;18.17;;;10.97;;
2564;SDS011;1292;48.020;7.822;2022-12-11T12:39:28;18.17;;;9.90;;
2564;SDS011;1292;48.020;7.822;2022-12-11T12:42:05;14.20;;;10.67;;
2564;SDS011;1292;48.020;7.822;2022-12-11T12:44:40;21.50;;;11.80;;
2564;SDS011;1292;48.020;7.822;2022-12-11T12:47:18;18.97;;;12.77;;
2564;SDS011;1292;48.020;7.822;2022-12-11T12:49:47;19.03;;;11.30;;
2564;SDS011;1292;48.020;7.822;2022-12-11T12:52:16;16.87;;;11.10;;
2564;SDS011;1292;48.020;7.822;2022-12-11T12:54:47;17.73;;;10.93;;
2564;SDS011;1292;48.020;7.822;2022-12-11T12:57:32;19.70;;;9.70;;
2564;SDS011;1292;48.020;7.822;2022-12-11T13:00:00;19.20;;;11.10;;
2564;SDS011;1292;48.020;7.822;2022-12-11T13:02:30;15.03;;;9.77;;
2564;SDS011;1292;48.020;7.822;2022-12-11T13:04:59;19.93;;;12.77;;
2564;SDS011;1292;48.020;7.822;2022-12-11T13:07:30;20.43;;;11.97;;
2564;SDS011;1292;48.020;7.822;2022-12-11T13:10:02;20.03;;;12.20;;
2564;SDS011;1292;48.020;7.822;2022-12-11T13:12:40;17.80;;;11.00;;
2564;SDS011;1292;48.020;7.822;2022-12-11T13:15:26;19.40;;;12.37;;
2564;SDS011;1292;48.020;7.822;2022-12-11T13:17:59;17.10;;;10.63;;
2564;SDS011;1292;48.020;7.822;2022-12-11T13:20:30;17.97;;;11.47;;
2564;SDS011;1292;48.020;7.822;2022-12-11T13:23:14;14.10;;;9.60;;
2564;SDS011;1292;48.020;7.822;2022-12-11T13:25:50;15.10;;;10.40;;
2564;SDS011;1292;48.020;7.822;2022-12-11T13:28:27;13.90;;;10.10;;
2564;SDS011;1292;48.020;7.822;2022-12-11T13:31:01;16.70;;;11.67;;
2564;SDS011;1292;48.020;7.822;2022-12-11T13:33:36;18.90;;;11.30;;
2564;SDS011;1292;48.020;7.822;2022-12-11T13:36:22;21.63;;;14.30;;
2564;SDS011;1292;48.020;7.822;2022-12-11T13:38:54;28.43;;;13.57;;
2564;SDS011;1292;48.020;7.822;2022-12-11T13:41:23;15.77;;;11.00;;
2564;SDS011;1292;48.020;7.822;2022-12-11T13:43:52;19.60;;;12.90;;
2564;SDS011;1292;48.020;7.822;2022-12-11T13:46:23;29.20;;;13.70;;
2564;SDS011;1292;48.020;7.822;2022-12-11T13:48:54;25.70;;;13.70;;
2564;SDS011;1292;48.020;7.822;2022-12-11T13:51:26;19.43;;;11.37;;
2564;SDS011;1292;48.020;7.822;2022-12-11T13:54:02;20.57;;;12.33;;
2564;SDS011;1292;48.020;7.822;2022-12-11T13:56:31;26.00;;;14.33;;
2564;SDS011;1292;48.020;7.822;2022-12-11T13:58:59;21.03;;;11.63;;
2564;SDS011;1292;48.020;7.822;2022-12-11T14:01:28;21.93;;;14.00;;
2564;SDS011;1292;48.020;7.822;2022-12-11T14:03:59;23.73;;;14.00;;
2564;SDS011;1292;48.020;7.822;2022-12-11T14:06:28;28.30;;;17.30;;
2564;SDS011;1292;48.020;7.822;2022-12-11T14:08:58;23.83;;;12.60;;
2564;SDS011;1292;48.020;7.822;2022-12-11T14:11:29;20.73;;;12.30;;
2564;SDS011;1292;48.020;7.822;2022-12-11T14:14:00;17.70;;;11.03;;
2564;SDS011;1292;48.020;7.822;2022-12-11T14:16:29;15.60;;;10.20;;
2564;SDS011;1292;48.020;7.822;2022-12-11T14:18:58;14.43;;;10.63;;
2564;SDS011;1292;48.020;7.822;2022-12-11T14:21:31;13.90;;;10.80;;
2564;SDS011;1292;48.020;7.822;2022-12-11T14:24:00;17.17;;;9.60;;
2564;SDS011;1292;48.020;7.822;2022-12-11T14:26:29;22.80;;;12.70;;
2564;SDS011;1292;48.020;7.822;2022-12-11T14:28:58;18.13;;;10.40;;
2564;SDS011;1292;48.020;7.822;2022-12-11T14:31:27;19.87;;;12.03;;
2564;SDS011;1292;48.020;7.822;2022-12-11T14:34:00;17.70;;;10.60;;
2564;SDS011;1292;48.020;7.822;2022-12-11T14:36:32;21.30;;;10.73;;
2564;SDS011;1292;48.020;7.822;2022-12-11T14:39:02;14.97;;;10.27;;
2564;SDS011;1292;48.020;7.822;2022-12-11T14:41:35;12.63;;;9.37;;
2564;SDS011;1292;48.020;7.822;2022-12-11T14:44:06;15.97;;;11.03;;
2564;SDS011;1292;48.020;7.822;2022-12-11T14:46:41;15.53;;;10.10;;
2564;SDS011;1292;48.020;7.822;2022-12-11T14:49:15;20.70;;;10.97;;
2564;SDS011;1292;48.020;7.822;2022-12-11T14:51:45;15.70;;;9.93;;
2564;SDS011;1292;48.020;7.822;2022-12-11T14:54:15;15.47;;;9.87;;
2564;SDS011;1292;48.020;7.822;2022-12-11T14:56:55;15.20;;;10.00;;
2564;SDS011;1292;48.020;7.822;2022-12-11T14:59:24;16.13;;;11.37;;
2564;SDS011;1292;48.020;7.822;2022-12-11T15:01:56;16.40;;;9.67;;
2564;SDS011;1292;48.020;7.822;2022-12-11T15:04:30;20.80;;;11.83;;
2564;SDS011;1292;48.020;7.822;2022-12-11T15:06:58;21.90;;;11.20;;
2564;SDS011;1292;48.020;7.822;2022-12-11T15:09:26;20.03;;;11.13;;
2564;SDS011;1292;48.020;7.822;2022-12-11T15:11:55;20.47;;;11.60;;
2564;SDS011;1292;48.020;7.822;2022-12-11T15:14:25;21.87;;;11.80;;
2564;SDS011;1292;48.020;7.822;2022-12-11T15:16:54;14.40;;;11.10;;
2564;SDS011;1292;48.020;7.822;2022-12-11T15:19:23;18.30;;;11.60;;
2564;SDS011;1292;48.020;7.822;2022-12-11T15:21:54;19.23;;;12.20;;
2564;SDS011;1292;48.020;7.822;2022-12-11T15:24:29;17.07;;;12.00;;
2564;SDS011;1292;48.020;7.822;2022-12-11T15:27:02;17.73;;;11.87;;
2564;SDS011;1292;48.020;7.822;2022-12-11T15:29:31;18.63;;;11.23;;
2564;SDS011;1292;48.020;7.822;2022-12-11T15:32:13;20.20;;;12.87;;
2564;SDS011;1292;48.020;7.822;2022-12-11T15:34:44;19.50;;;12.47;;
2564;SDS011;1292;48.020;7.822;2022-12-11T15:37:18;21.40;;;13.20;;
2564;SDS011;1292;48.020;7.822;2022-12-11T15:39:46;16.07;;;10.90;;
2564;SDS011;1292;48.020;7.822;2022-12-11T15:42:15;20.53;;;11.30;;
2564;SDS011;1292;48.020;7.822;2022-12-11T15:44:47;19.40;;;14.20;;
2564;SDS011;1292;48.020;7.822;2022-12-11T15:47:14;17.47;;;10.37;;
2564;SDS011;1292;48.020;7.822;2022-12-11T15:49:46;17.10;;;10.33;;
2564;SDS011;1292;48.020;7.822;2022-12-11T15:52:12;17.97;;;12.60;;
2564;SDS011;1292;48.020;7.822;2022-12-11T15:54:41;18.87;;;10.47;;
2564;SDS011;1292;48.020;7.822;2022-12-11T15:57:10;17.47;;;10.37;;
2564;SDS011;1292;48.020;7.822;2022-12-11T15:59:41;18.80;;;10.83;;
2564;SDS011;1292;48.020;7.822;2022-12-11T16:02:09;15.10;;;10.50;;
2564;SDS011;1292;48.020;7.822;2022-12-11T16:04:37;19.10;;;12.10;;
2564;SDS011;1292;48.020;7.822;2022-12-11T16:07:05;18.73;;;12.87;;
2564;SDS011;1292;48.020;7.822;2022-12-11T16:09:38;20.67;;;13.13;;
2564;SDS011;1292;48.020;7.822;2022-12-11T16:12:07;22.03;;;13.70;;
2564;SDS011;1292;48.020;7.822;2022-12-11T16:14:35;16.47;;;12.13;;
2564;SDS011;1292;48.020;7.822;2022-12-11T16:17:03;23.63;;;13.20;;
2564;SDS011;1292;48.020;7.822;2022-12-11T16:19:31;20.13;;;11.10;;
2564;SDS011;1292;48.020;7.822;2022-12-11T16:21:58;22.93;;;12.90;;
2564;SDS011;1292;48.020;7.822;2022-12-11T16:24:26;19.23;;;12.60;;
2564;SDS011;1292;48.020;7.822;2022-12-11T16:26:53;22.70;;;15.27;;
2564;SDS011;1292;48.020;7.822;2022-12-11T16:29:22;22.17;;;12.57;;
2564;SDS011;1292;48.020;7.822;2022-12-11T16:31:49;16.43;;;11.30;;
2564;SDS011;1292;48.020;7.822;2022-12-11T16:34:16;22.00;;;14.07;;
2564;SDS011;1292;48.020;7.822;2022-12-11T16:36:43;24.60;;;14.50;;
2564;SDS011;1292;48.020;7.822;2022-12-11T16:39:10;16.17;;;11.00;;
2564;SDS011;1292;48.020;7.822;2022-12-11T16:41:38;17.57;;;11.83;;
2564;SDS011;1292;48.020;7.822;2022-12-11T16:44:05;16.97;;;11.03;;
2564;SDS011;1292;48.020;7.822;2022-12-11T16:46:34;26.37;;;14.70;;
2564;SDS011;1292;48.020;7.822;2022-12-11T16:49:01;46.13;;;23.60;;
2564;SDS011;1292;48.020;7.822;2022-12-11T16:51:31;40.00;;;18.40;;
2564;SDS011;1292;48.020;7.822;2022-12-11T16:53:58;28.13;;;15.63;;
2564;SDS011;1292;48.020;7.822;2022-12-11T16:56:25;24.53;;;12.70;;
2564;SDS011;1292;48.020;7.822;2022-12-11T16:58:52;26.10;;;14.20;;
2564;SDS011;1292;48.020;7.822;2022-12-11T17:01:20;29.20;;;17.37;;
2564;SDS011;1292;48.020;7.822;2022-12-11T17:03:49;35.43;;;17.63;;
2564;SDS011;1292;48.020;7.822;2022-12-11T17:06:17;29.23;;;14.17;;
2564;SDS011;1292;48.020;7.822;2022-12-11T17:08:45;28.43;;;14.10;;
2564;SDS011;1292;48.020;7.822;2022-12-11T17:11:13;43.43;;;23.80;;
2564;SDS011;1292;48.020;7.822;2022-12-11T17:13:42;34.73;;;20.60;;
2564;SDS011;1292;48.020;7.822;2022-12-11T17:16:09;24.93;;;13.93;;
2564;SDS011;1292;48.020;7.822;2022-12-11T17:18:38;25.47;;;15.10;;
2564;SDS011;1292;48.020;7.822;2022-12-11T17:21:07;28.50;;;17.00;;
2564;SDS011;1292;48.020;7.822;2022-12-11T17:23:35;25.93;;;13.73;;
2564;SDS011;1292;48.020;7.822;2022-12-11T17:26:02;22.63;;;14.93;;
2564;SDS011;1292;48.020;7.822;2022-12-11T17:28:30;28.57;;;14.83;;
2564;SDS011;1292;48.020;7.822;2022-12-11T17:30:57;28.87;;;15.57;;
2564;SDS011;1292;48.020;7.822;2022-12-11T17:33:24;21.83;;;12.80;;
2564;SDS011;1292;48.020;7.822;2022-12-11T17:35:51;24.03;;;12.87;;
2564;SDS011;1292;48.020;7.822;2022-12-11T17:38:20;23.53;;;12.97;;
2564;SDS011;1292;48.020;7.822;2022-12-11T17:40:47;21.27;;;13.23;;
2564;SDS011;1292;48.020;7.822;2022-12-11T17:43:14;26.00;;;14.47;;
2564;SDS011;1292;48.020;7.822;2022-12-11T17:45:41;30.23;;;15.23;;
2564;SDS011;1292;48.020;7.822;2022-12-11T17:48:08;29.63;;;18.27;;
2564;SDS011;1292;48.020;7.822;2022-12-11T17:50:38;29.97;;;17.33;;
2564;SDS011;1292;48.020;7.822;2022-12-11T17:53:05;21.90;;;15.20;;
2564;SDS011;1292;48.020;7.822;2022-12-11T17:55:33;31.77;;;15.60;;
2564;SDS011;1292;48.020;7.822;2022-12-11T17:58:06;24.57;;;13.80;;
2564;SDS011;1292;48.020;7.822;2022-12-11T18:00:33;21.83;;;13.33;;
2564;SDS011;1292;48.020;7.822;2022-12-11T18:03:00;21.27;;;14.03;;
2564;SDS011;1292;48.020;7.822;2022-12-11T18:05:27;25.50;;;13.17;;
2564;SDS011;1292;48.020;7.822;2022-12-11T18:07:54;16.87;;;11.77;;
2564;SDS011;1292;48.020;7.822;2022-12-11T18:10:21;17.90;;;12.67;;
2564;SDS011;1292;48.020;7.822;2022-12-11T18:12:49;26.60;;;15.60;;
2564;SDS011;1292;48.020;7.822;2022-12-11T18:15:16;19.40;;;12.57;;
2564;SDS011;1292;48.020;7.822;2022-12-11T18:17:43;19.50;;;14.37;;
2564;SDS011;1292;48.020;7.822;2022-12-11T18:20:11;19.57;;;11.10;;
2564;SDS011;1292;48.020;7.822;2022-12-11T18:22:39;19.03;;;12.33;;
2564;SDS011;1292;48.020;7.822;2022-12-11T18:25:07;15.73;;;9.40;;
2564;SDS011;1292;48.020;7.822;2022-12-11T18:27:35;16.83;;;10.63;;
2564;SDS011;1292;48.020;7.822;2022-12-11T18:30:04;22.63;;;11.47;;
2564;SDS011;1292;48.020;7.822;2022-12-11T18:32:31;18.63;;;13.13;;
2564;SDS011;1292;48.020;7.822;2022-12-11T18:34:58;23.60;;;13.93;;
2564;SDS011;1292;48.020;7.822;2022-12-11T18:37:26;19.97;;;13.47;;
2564;SDS011;1292;48.020;7.822;2022-12-11T18:39:53;21.50;;;13.27;;
2564;SDS011;1292;48.020;7.822;2022-12-11T18:42:20;23.33;;;14.30;;
2564;SDS011;1292;48.020;7.822;2022-12-11T18:44:47;20.47;;;13.43;;
2564;SDS011;1292;48.020;7.822;2022-12-11T18:47:15;22.87;;;14.20;;
2564;SDS011;1292;48.020;7.822;2022-12-11T18:49:42;18.47;;;11.57;;
2564;SDS011;1292;48.020;7.822;2022-12-11T18:52:09;21.00;;;12.83;;
2564;SDS011;1292;48.020;7.822;2022-12-11T18:54:36;24.70;;;14.23;;
2564;SDS011;1292;48.020;7.822;2022-12-11T18:57:03;20.43;;;12.83;;
2564;SDS011;1292;48.020;7.822;2022-12-11T18:59:30;26.00;;;13.17;;
2564;SDS011;1292;48.020;7.822;2022-12-11T19:01:56;17.77;;;12.80;;
2564;SDS011;1292;48.020;7.822;2022-12-11T19:04:25;25.27;;;13.60;;
2564;SDS011;1292;48.020;7.822;2022-12-11T19:06:51;24.80;;;12.90;;
2564;SDS011;1292;48.020;7.822;2022-12-11T19:09:18;25.50;;;14.50;;
2564;SDS011;1292;48.020;7.822;2022-12-11T19:11:45;23.60;;;14.73;;
2564;SDS011;1292;48.020;7.822;2022-12-11T19:14:12;22.07;;;13.37;;
2564;SDS011;1292;48.020;7.822;2022-12-11T19:16:42;20.73;;;12.80;;
2564;SDS011;1292;48.020;7.822;2022-12-11T19:19:18;22.87;;;15.60;;
2564;SDS011;1292;48.020;7.822;2022-12-11T19:21:48;26.20;;;17.33;;
2564;SDS011;1292;48.020;7.822;2022-12-11T19:24:16;24.67;;;14.70;;
2564;SDS011;1292;48.020;7.822;2022-12-11T19:26:44;34.13;;;20.70;;
2564;SDS011;1292;48.020;7.822;2022-12-11T19:29:11;26.30;;;15.90;;
2564;SDS011;1292;48.020;7.822;2022-12-11T19:31:44;30.47;;;20.67;;
2564;SDS011;1292;48.020;7.822;2022-12-11T19:34:11;33.70;;;21.83;;
2564;SDS011;1292;48.020;7.822;2022-12-11T19:36:39;34.93;;;22.30;;
2564;SDS011;1292;48.020;7.822;2022-12-11T19:39:07;42.40;;;24.87;;
2564;SDS011;1292;48.020;7.822;2022-12-11T19:41:34;39.33;;;22.83;;
2564;SDS011;1292;48.020;7.822;2022-12-11T19:44:01;38.87;;;22.67;;
2564;SDS011;1292;48.020;7.822;2022-12-11T19:46:28;48.73;;;27.50;;
2564;SDS011;1292;48.020;7.822;2022-12-11T19:48:56;62.47;;;34.33;;
2564;SDS011;1292;48.020;7.822;2022-12-11T19:51:25;40.40;;;28.70;;
2564;SDS011;1292;48.020;7.822;2022-12-11T19:53:53;47.50;;;30.27;;
2564;SDS011;1292;48.020;7.822;2022-12-11T19:56:22;51.40;;;27.20;;
2564;SDS011;1292;48.020;7.822;2022-12-11T19:58:49;28.20;;;19.13;;
2564;SDS011;1292;48.020;7.822;2022-12-11T20:01:16;39.23;;;19.80;;
2564;SDS011;1292;48.020;7.822;2022-12-11T20:03:46;44.10;;;25.60;;
2564;SDS011;1292;48.020;7.822;2022-12-11T20:06:13;39.70;;;21.83;;
2564;SDS011;1292;48.020;7.822;2022-12-11T20:08:40;37.87;;;21.57;;
2564;SDS011;1292;48.020;7.822;2022-12-11T20:11:08;35.73;;;19.23;;
2564;SDS011;1292;48.020;7.822;2022-12-11T20:13:37;32.70;;;18.10;;
2564;SDS011;1292;48.020;7.822;2022-12-11T20:16:05;33.93;;;19.23;;
2564;SDS011;1292;48.020;7.822;2022-12-11T20:18:32;34.33;;;20.20;;
2564;SDS011;1292;48.020;7.822;2022-12-11T20:20:59;28.90;;;18.93;;
2564;SDS011;1292;48.020;7.822;2022-12-11T20:23:27;27.67;;;13.80;;
2564;SDS011;1292;48.020;7.822;2022-12-11T20:25:54;24.57;;;14.37;;
2564;SDS011;1292;48.020;7.822;2022-12-11T20:28:20;34.83;;;19.07;;
2564;SDS011;1292;48.020;7.822;2022-12-11T20:30:49;31.23;;;17.30;;
2564;SDS011;1292;48.020;7.822;2022-12-11T20:33:16;26.53;;;16.07;;
2564;SDS011;1292;48.020;7.822;2022-12-11T20:35:43;19.80;;;12.77;;
2564;SDS011;1292;48.020;7.822;2022-12-11T20:38:10;30.83;;;15.10;;
2564;SDS011;1292;48.020;7.822;2022-12-11T20:40:37;27.10;;;14.53;;
2564;SDS011;1292;48.020;7.822;2022-12-11T20:43:04;23.77;;;13.50;;
2564;SDS011;1292;48.020;7.822;2022-12-11T20:45:31;28.70;;;15.27;;
2564;SDS011;1292;48.020;7.822;2022-12-11T20:47:59;30.00;;;15.10;;
2564;SDS011;1292;48.020;7.822;2022-12-11T20:50:26;20.53;;;13.13;;
2564;SDS011;1292;48.020;7.822;2022-12-11T20:52:53;25.50;;;13.20;;
2564;SDS011;1292;48.020;7.822;2022-12-11T20:55:20;26.40;;;12.80;;
2564;SDS011;1292;48.020;7.822;2022-12-11T20:57:46;31.50;;;15.50;;
2564;SDS011;1292;48.020;7.822;2022-12-11T21:00:14;38.23;;;14.27;;
2564;SDS011;1292;48.020;7.822;2022-12-11T21:02:41;28.67;;;14.43;;
2564;SDS011;1292;48.020;7.822;2022-12-11T21:05:09;25.67;;;12.80;;
2564;SDS011;1292;48.020;7.822;2022-12-11T21:07:36;34.93;;;16.60;;
2564;SDS011;1292;48.020;7.822;2022-12-11T21:10:03;27.97;;;15.20;;
2564;SDS011;1292;48.020;7.822;2022-12-11T21:12:31;34.20;;;14.80;;
2564;SDS011;1292;48.020;7.822;2022-12-11T21:14:58;28.47;;;15.60;;
2564;SDS011;1292;48.020;7.822;2022-12-11T21:17:24;29.30;;;15.83;;
2564;SDS011;1292;48.020;7.822;2022-12-11T21:19:51;26.70;;;13.53;;
2564;SDS011;1292;48.020;7.822;2022-12-11T21:22:19;25.20;;;13.30;;
2564;SDS011;1292;48.020;7.822;2022-12-11T21:24:46;27.60;;;15.30;;
2564;SDS011;1292;48.020;7.822;2022-12-11T21:27:13;28.23;;;14.70;;
2564;SDS011;1292;48.020;7.822;2022-12-11T21:29:40;31.67;;;17.20;;
2564;SDS011;1292;48.020;7.822;2022-12-11T21:32:07;36.10;;;16.53;;
2564;SDS011;1292;48.020;7.822;2022-12-11T21:34:34;31.00;;;15.20;;
2564;SDS011;1292;48.020;7.822;2022-12-11T21:37:01;29.37;;;14.50;;
2564;SDS011;1292;48.020;7.822;2022-12-11T21:39:30;34.30;;;16.33;;
2564;SDS011;1292;48.020;7.822;2022-12-11T21:41:56;29.13;;;15.23;;
2564;SDS011;1292;48.020;7.822;2022-12-11T21:44:24;23.60;;;11.73;;
2564;SDS011;1292;48.020;7.822;2022-12-11T21:46:51;28.27;;;14.43;;
2564;SDS011;1292;48.020;7.822;2022-12-11T21:49:18;24.00;;;13.60;;